sensor_id;sensor_type;location;lat;lon;timestamp;P1;durP1;ratioP1;P2;durP2;ratioP2
17796;SDS011;55596;53.554;9.916;2023-01-01T00:01:52;12.07;;;3.80;;
17796;SDS011;55596;53.554;9.916;2023-01-01T00:04:20;8.23;;;3.47;;
17796;SDS011;55596;53.554;9.916;2023-01-01T00:06:47;9.63;;;3.63;;
17796;SDS011;55596;53.554;9.916;2023-01-01T00:09:14;11.07;;;3.67;;
17796;SDS011;55596;53.554;9.916;2023-01-01T00:11:58;8.20;;;3.17;;
17796;SDS011;55596;53.554;9.916;2023-01-01T00:14:25;18.80;;;3.40;;
17796;SDS011;55596;53.554;9.916;2023-01-01T00:16:53;13.80;;;3.80;;
17796;SDS011;55596;53.554;9.916;2023-01-01T00:19:21;11.37;;;3.97;;
17796;SDS011;55596;53.554;9.916;2023-01-01T00:21:48;16.93;;;3.83;;
17796;SDS011;55596;53.554;9.916;2023-01-01T00:24:15;12.03;;;4.00;;
17796;SDS011;55596;53.554;9.916;2023-01-01T00:26:42;12.97;;;4.17;;
17796;SDS011;55596;53.554;9.916;2023-01-01T00:29:09;8.33;;;4.23;;
17796;SDS011;55596;53.554;9.916;2023-01-01T00:31:36;14.07;;;4.30;;
17796;SDS011;55596;53.554;9.916;2023-01-01T00:34:03;16.80;;;4.17;;
17796;SDS011;55596;53.554;9.916;2023-01-01T00:36:31;9.57;;;4.00;;
17796;SDS011;55596;53.554;9.916;2023-01-01T00:38:58;14.20;;;4.43;;
17796;SDS011;55596;53.554;9.916;2023-01-01T00:41:26;11.73;;;4.80;;
17796;SDS011;55596;53.554;9.916;2023-01-01T00:43:53;14.17;;;4.67;;
17796;SDS011;55596;53.554;9.916;2023-01-01T00:46:20;16.77;;;4.73;;
17796;SDS011;55596;53.554;9.916;2023-01-01T00:48:47;16.77;;;4.97;;
17796;SDS011;55596;53.554;9.916;2023-01-01T00:51:13;14.03;;;4.57;;
17796;SDS011;55596;53.554;9.916;2023-01-01T00:53:43;10.70;;;4.30;;
17796;SDS011;55596;53.554;9.916;2023-01-01T00:56:09;17.17;;;4.77;;
17796;SDS011;55596;53.554;9.916;2023-01-01T00:58:36;11.03;;;4.37;;
17796;SDS011;55596;53.554;9.916;2023-01-01T01:01:03;11.60;;;4.20;;
17796;SDS011;55596;53.554;9.916;2023-01-01T01:03:30;13.13;;;4.30;;
17796;SDS011;55596;53.554;9.916;2023-01-01T01:05:58;17.03;;;3.83;;
17796;SDS011;55596;53.554;9.916;2023-01-01T01:08:34;11.73;;;4.77;;
17796;SDS011;55596;53.554;9.916;2023-01-01T01:11:04;16.37;;;4.40;;
17796;SDS011;55596;53.554;9.916;2023-01-01T01:13:33;12.17;;;3.90;;
17796;SDS011;55596;53.554;9.916;2023-01-01T01:16:00;15.80;;;4.60;;
17796;SDS011;55596;53.554;9.916;2023-01-01T01:18:27;13.07;;;4.00;;
17796;SDS011;55596;53.554;9.916;2023-01-01T01:20:54;14.60;;;4.23;;
17796;SDS011;55596;53.554;9.916;2023-01-01T01:23:20;15.47;;;4.30;;
17796;SDS011;55596;53.554;9.916;2023-01-01T01:25:47;12.17;;;4.20;;
17796;SDS011;55596;53.554;9.916;2023-01-01T01:28:15;11.23;;;4.03;;
17796;SDS011;55596;53.554;9.916;2023-01-01T01:30:42;10.73;;;3.93;;
17796;SDS011;55596;53.554;9.916;2023-01-01T01:33:09;13.03;;;3.93;;
17796;SDS011;55596;53.554;9.916;2023-01-01T01:35:36;11.27;;;3.50;;
17796;SDS011;55596;53.554;9.916;2023-01-01T01:38:03;19.03;;;3.80;;
17796;SDS011;55596;53.554;9.916;2023-01-01T01:40:30;9.80;;;3.73;;
17796;SDS011;55596;53.554;9.916;2023-01-01T01:42:58;15.67;;;4.90;;
17796;SDS011;55596;53.554;9.916;2023-01-01T01:45:26;10.63;;;3.90;;
17796;SDS011;55596;53.554;9.916;2023-01-01T01:47:54;8.97;;;3.90;;
17796;SDS011;55596;53.554;9.916;2023-01-01T01:50:24;12.63;;;4.30;;
17796;SDS011;55596;53.554;9.916;2023-01-01T01:53:01;11.00;;;3.50;;
17796;SDS011;55596;53.554;9.916;2023-01-01T01:55:31;11.07;;;3.63;;
17796;SDS011;55596;53.554;9.916;2023-01-01T01:58:01;14.07;;;3.83;;
17796;SDS011;55596;53.554;9.916;2023-01-01T02:00:30;10.97;;;3.80;;
17796;SDS011;55596;53.554;9.916;2023-01-01T02:02:58;15.27;;;3.80;;
17796;SDS011;55596;53.554;9.916;2023-01-01T02:05:28;11.33;;;3.83;;
17796;SDS011;55596;53.554;9.916;2023-01-01T02:07:56;8.43;;;3.60;;
17796;SDS011;55596;53.554;9.916;2023-01-01T02:10:24;10.13;;;3.93;;
17796;SDS011;55596;53.554;9.916;2023-01-01T02:12:52;16.03;;;4.23;;
17796;SDS011;55596;53.554;9.916;2023-01-01T02:15:19;11.43;;;4.23;;
17796;SDS011;55596;53.554;9.916;2023-01-01T02:17:53;10.37;;;3.63;;
17796;SDS011;55596;53.554;9.916;2023-01-01T02:20:31;10.03;;;3.10;;
17796;SDS011;55596;53.554;9.916;2023-01-01T02:23:12;9.57;;;3.73;;
17796;SDS011;55596;53.554;9.916;2023-01-01T02:26:00;9.63;;;3.27;;
17796;SDS011;55596;53.554;9.916;2023-01-01T02:28:45;11.30;;;3.90;;
17796;SDS011;55596;53.554;9.916;2023-01-01T02:31:20;6.77;;;3.23;;
17796;SDS011;55596;53.554;9.916;2023-01-01T02:33:49;12.90;;;3.53;;
17796;SDS011;55596;53.554;9.916;2023-01-01T02:36:20;12.47;;;3.73;;
17796;SDS011;55596;53.554;9.916;2023-01-01T02:38:50;13.90;;;3.70;;
17796;SDS011;55596;53.554;9.916;2023-01-01T02:41:20;11.43;;;3.90;;
17796;SDS011;55596;53.554;9.916;2023-01-01T02:43:52;10.43;;;3.47;;
17796;SDS011;55596;53.554;9.916;2023-01-01T02:46:19;14.63;;;4.30;;
17796;SDS011;55596;53.554;9.916;2023-01-01T02:48:46;13.47;;;3.70;;
17796;SDS011;55596;53.554;9.916;2023-01-01T02:51:16;12.47;;;4.60;;
17796;SDS011;55596;53.554;9.916;2023-01-01T02:53:52;13.27;;;4.17;;
17796;SDS011;55596;53.554;9.916;2023-01-01T02:56:32;8.60;;;3.90;;
17796;SDS011;55596;53.554;9.916;2023-01-01T02:59:07;13.13;;;3.57;;
17796;SDS011;55596;53.554;9.916;2023-01-01T03:02:02;8.40;;;4.43;;
17796;SDS011;55596;53.554;9.916;2023-01-01T03:04:39;10.93;;;4.17;;
17796;SDS011;55596;53.554;9.916;2023-01-01T03:07:12;12.80;;;4.53;;
17796;SDS011;55596;53.554;9.916;2023-01-01T03:09:52;13.67;;;4.27;;
17796;SDS011;55596;53.554;9.916;2023-01-01T03:12:26;6.70;;;3.70;;
17796;SDS011;55596;53.554;9.916;2023-01-01T03:15:06;14.57;;;4.87;;
17796;SDS011;55596;53.554;9.916;2023-01-01T03:17:40;15.20;;;4.97;;
17796;SDS011;55596;53.554;9.916;2023-01-01T03:20:14;8.33;;;4.67;;
17796;SDS011;55596;53.554;9.916;2023-01-01T03:22:44;16.53;;;5.87;;
17796;SDS011;55596;53.554;9.916;2023-01-01T03:25:15;12.30;;;5.33;;
17796;SDS011;55596;53.554;9.916;2023-01-01T03:27:47;15.00;;;6.10;;
17796;SDS011;55596;53.554;9.916;2023-01-01T03:30:17;17.23;;;6.17;;
17796;SDS011;55596;53.554;9.916;2023-01-01T03:32:47;11.40;;;5.80;;
17796;SDS011;55596;53.554;9.916;2023-01-01T03:35:29;8.03;;;4.70;;
17796;SDS011;55596;53.554;9.916;2023-01-01T03:38:01;11.53;;;5.47;;
17796;SDS011;55596;53.554;9.916;2023-01-01T03:40:33;10.93;;;5.43;;
17796;SDS011;55596;53.554;9.916;2023-01-01T03:43:02;9.57;;;5.63;;
17796;SDS011;55596;53.554;9.916;2023-01-01T03:45:36;8.80;;;4.77;;
17796;SDS011;55596;53.554;9.916;2023-01-01T03:48:05;11.17;;;5.40;;
17796;SDS011;55596;53.554;9.916;2023-01-01T03:50:36;15.87;;;6.00;;
17796;SDS011;55596;53.554;9.916;2023-01-01T03:53:12;15.50;;;5.37;;
17796;SDS011;55596;53.554;9.916;2023-01-01T03:55:47;11.73;;;5.57;;
17796;SDS011;55596;53.554;9.916;2023-01-01T03:58:17;14.07;;;5.20;;
17796;SDS011;55596;53.554;9.916;2023-01-01T04:00:53;11.47;;;4.77;;
17796;SDS011;55596;53.554;9.916;2023-01-01T04:03:23;17.23;;;5.33;;
17796;SDS011;55596;53.554;9.916;2023-01-01T04:05:53;11.43;;;4.77;;
17796;SDS011;55596;53.554;9.916;2023-01-01T04:08:20;11.47;;;5.17;;
17796;SDS011;55596;53.554;9.916;2023-01-01T04:10:56;11.60;;;4.40;;
17796;SDS011;55596;53.554;9.916;2023-01-01T04:13:24;9.20;;;4.63;;
17796;SDS011;55596;53.554;9.916;2023-01-01T04:15:52;9.20;;;5.17;;
17796;SDS011;55596;53.554;9.916;2023-01-01T04:18:19;10.73;;;4.57;;
17796;SDS011;55596;53.554;9.916;2023-01-01T04:20:46;9.00;;;4.20;;
17796;SDS011;55596;53.554;9.916;2023-01-01T04:23:13;13.27;;;4.67;;
17796;SDS011;55596;53.554;9.916;2023-01-01T04:25:39;13.20;;;4.87;;
17796;SDS011;55596;53.554;9.916;2023-01-01T04:28:06;10.57;;;4.50;;
17796;SDS011;55596;53.554;9.916;2023-01-01T04:30:33;14.73;;;4.33;;
17796;SDS011;55596;53.554;9.916;2023-01-01T04:33:01;14.77;;;5.30;;
17796;SDS011;55596;53.554;9.916;2023-01-01T04:35:28;11.00;;;5.13;;
17796;SDS011;55596;53.554;9.916;2023-01-01T04:37:55;12.80;;;5.83;;
17796;SDS011;55596;53.554;9.916;2023-01-01T04:40:23;11.03;;;4.53;;
17796;SDS011;55596;53.554;9.916;2023-01-01T04:42:52;12.80;;;4.90;;
17796;SDS011;55596;53.554;9.916;2023-01-01T04:45:19;9.60;;;3.70;;
17796;SDS011;55596;53.554;9.916;2023-01-01T04:47:46;8.63;;;4.00;;
17796;SDS011;55596;53.554;9.916;2023-01-01T04:50:14;12.77;;;4.07;;
17796;SDS011;55596;53.554;9.916;2023-01-01T04:52:41;10.87;;;4.33;;
17796;SDS011;55596;53.554;9.916;2023-01-01T04:55:08;9.33;;;4.30;;
17796;SDS011;55596;53.554;9.916;2023-01-01T04:57:35;10.53;;;3.63;;
17796;SDS011;55596;53.554;9.916;2023-01-01T05:00:02;17.27;;;4.17;;
17796;SDS011;55596;53.554;9.916;2023-01-01T05:02:30;8.33;;;3.83;;
17796;SDS011;55596;53.554;9.916;2023-01-01T05:04:56;9.70;;;3.60;;
17796;SDS011;55596;53.554;9.916;2023-01-01T05:07:25;10.37;;;3.90;;
17796;SDS011;55596;53.554;9.916;2023-01-01T05:09:51;10.93;;;3.67;;
17796;SDS011;55596;53.554;9.916;2023-01-01T05:12:18;10.80;;;3.63;;
17796;SDS011;55596;53.554;9.916;2023-01-01T05:14:45;7.90;;;3.50;;
17796;SDS011;55596;53.554;9.916;2023-01-01T05:17:12;9.37;;;3.63;;
17796;SDS011;55596;53.554;9.916;2023-01-01T05:19:39;8.63;;;3.57;;
17796;SDS011;55596;53.554;9.916;2023-01-01T05:22:05;9.37;;;3.60;;
17796;SDS011;55596;53.554;9.916;2023-01-01T05:24:34;10.77;;;3.63;;
17796;SDS011;55596;53.554;9.916;2023-01-01T05:27:01;8.13;;;3.10;;
17796;SDS011;55596;53.554;9.916;2023-01-01T05:29:28;11.70;;;3.90;;
17796;SDS011;55596;53.554;9.916;2023-01-01T05:31:55;7.97;;;3.00;;
17796;SDS011;55596;53.554;9.916;2023-01-01T05:34:22;9.20;;;3.50;;
17796;SDS011;55596;53.554;9.916;2023-01-01T05:36:49;10.20;;;3.60;;
17796;SDS011;55596;53.554;9.916;2023-01-01T05:39:16;8.43;;;3.30;;
17796;SDS011;55596;53.554;9.916;2023-01-01T05:41:44;8.47;;;3.50;;
17796;SDS011;55596;53.554;9.916;2023-01-01T05:44:11;10.23;;;3.53;;
17796;SDS011;55596;53.554;9.916;2023-01-01T05:46:40;8.23;;;3.13;;
17796;SDS011;55596;53.554;9.916;2023-01-01T05:49:09;9.97;;;3.23;;
17796;SDS011;55596;53.554;9.916;2023-01-01T05:51:36;7.93;;;3.13;;
17796;SDS011;55596;53.554;9.916;2023-01-01T05:54:03;7.17;;;3.07;;
17796;SDS011;55596;53.554;9.916;2023-01-01T05:56:30;8.57;;;3.00;;
17796;SDS011;55596;53.554;9.916;2023-01-01T05:58:59;9.97;;;3.47;;
17796;SDS011;55596;53.554;9.916;2023-01-01T06:01:26;7.30;;;2.87;;
17796;SDS011;55596;53.554;9.916;2023-01-01T06:03:54;7.17;;;2.70;;
17796;SDS011;55596;53.554;9.916;2023-01-01T06:06:22;7.13;;;2.80;;
17796;SDS011;55596;53.554;9.916;2023-01-01T06:08:52;9.37;;;2.60;;
17796;SDS011;55596;53.554;9.916;2023-01-01T06:11:20;11.37;;;3.07;;
17796;SDS011;55596;53.554;9.916;2023-01-01T06:13:50;11.70;;;2.63;;
17796;SDS011;55596;53.554;9.916;2023-01-01T06:16:19;6.17;;;2.53;;
17796;SDS011;55596;53.554;9.916;2023-01-01T06:18:46;5.17;;;2.30;;
17796;SDS011;55596;53.554;9.916;2023-01-01T06:21:14;7.63;;;2.63;;
17796;SDS011;55596;53.554;9.916;2023-01-01T06:23:41;9.27;;;2.37;;
17796;SDS011;55596;53.554;9.916;2023-01-01T06:26:09;10.37;;;2.77;;
17796;SDS011;55596;53.554;9.916;2023-01-01T06:28:37;7.03;;;2.70;;
17796;SDS011;55596;53.554;9.916;2023-01-01T06:31:05;6.13;;;2.40;;
17796;SDS011;55596;53.554;9.916;2023-01-01T06:33:34;7.80;;;2.50;;
17796;SDS011;55596;53.554;9.916;2023-01-01T06:36:02;9.70;;;2.87;;
17796;SDS011;55596;53.554;9.916;2023-01-01T06:38:31;6.47;;;2.67;;
17796;SDS011;55596;53.554;9.916;2023-01-01T06:40:59;10.93;;;2.70;;
17796;SDS011;55596;53.554;9.916;2023-01-01T06:43:28;9.77;;;2.53;;
17796;SDS011;55596;53.554;9.916;2023-01-01T06:45:59;7.27;;;3.17;;
17796;SDS011;55596;53.554;9.916;2023-01-01T06:48:27;9.10;;;2.37;;
17796;SDS011;55596;53.554;9.916;2023-01-01T06:50:57;6.90;;;2.53;;
17796;SDS011;55596;53.554;9.916;2023-01-01T06:53:24;5.93;;;2.40;;
17796;SDS011;55596;53.554;9.916;2023-01-01T06:55:51;5.93;;;2.80;;
17796;SDS011;55596;53.554;9.916;2023-01-01T06:58:18;9.37;;;2.60;;
17796;SDS011;55596;53.554;9.916;2023-01-01T07:00:45;8.07;;;2.47;;
17796;SDS011;55596;53.554;9.916;2023-01-01T07:03:12;7.77;;;2.33;;
17796;SDS011;55596;53.554;9.916;2023-01-01T07:05:39;8.07;;;2.20;;
17796;SDS011;55596;53.554;9.916;2023-01-01T07:08:07;10.53;;;2.30;;
17796;SDS011;55596;53.554;9.916;2023-01-01T07:10:34;6.67;;;2.30;;
17796;SDS011;55596;53.554;9.916;2023-01-01T07:13:01;6.53;;;2.37;;
17796;SDS011;55596;53.554;9.916;2023-01-01T07:15:28;9.93;;;2.23;;
17796;SDS011;55596;53.554;9.916;2023-01-01T07:17:55;13.03;;;2.50;;
17796;SDS011;55596;53.554;9.916;2023-01-01T07:20:22;9.27;;;3.03;;
17796;SDS011;55596;53.554;9.916;2023-01-01T07:22:49;8.00;;;1.87;;
17796;SDS011;55596;53.554;9.916;2023-01-01T07:25:17;6.47;;;2.00;;
17796;SDS011;55596;53.554;9.916;2023-01-01T07:27:44;6.93;;;2.13;;
17796;SDS011;55596;53.554;9.916;2023-01-01T07:30:11;6.40;;;2.03;;
17796;SDS011;55596;53.554;9.916;2023-01-01T07:32:38;11.20;;;2.87;;
17796;SDS011;55596;53.554;9.916;2023-01-01T07:35:05;11.87;;;2.23;;
17796;SDS011;55596;53.554;9.916;2023-01-01T07:37:32;11.13;;;1.87;;
17796;SDS011;55596;53.554;9.916;2023-01-01T07:39:59;7.67;;;1.93;;
17796;SDS011;55596;53.554;9.916;2023-01-01T07:42:27;8.50;;;2.00;;
17796;SDS011;55596;53.554;9.916;2023-01-01T07:44:54;7.73;;;2.37;;
17796;SDS011;55596;53.554;9.916;2023-01-01T07:47:21;5.53;;;1.67;;
17796;SDS011;55596;53.554;9.916;2023-01-01T07:49:49;6.67;;;1.77;;
17796;SDS011;55596;53.554;9.916;2023-01-01T07:52:16;5.37;;;1.70;;
17796;SDS011;55596;53.554;9.916;2023-01-01T07:54:44;4.40;;;1.83;;
17796;SDS011;55596;53.554;9.916;2023-01-01T07:57:11;5.97;;;1.57;;
17796;SDS011;55596;53.554;9.916;2023-01-01T07:59:39;6.77;;;1.83;;
17796;SDS011;55596;53.554;9.916;2023-01-01T08:02:06;5.43;;;1.30;;
17796;SDS011;55596;53.554;9.916;2023-01-01T08:04:35;6.23;;;1.50;;
17796;SDS011;55596;53.554;9.916;2023-01-01T08:07:02;4.27;;;1.53;;
17796;SDS011;55596;53.554;9.916;2023-01-01T08:09:29;8.33;;;1.50;;
17796;SDS011;55596;53.554;9.916;2023-01-01T08:11:55;5.87;;;1.50;;
17796;SDS011;55596;53.554;9.916;2023-01-01T08:14:23;6.53;;;1.40;;
17796;SDS011;55596;53.554;9.916;2023-01-01T08:16:51;6.07;;;1.40;;
17796;SDS011;55596;53.554;9.916;2023-01-01T08:19:18;4.00;;;1.43;;
17796;SDS011;55596;53.554;9.916;2023-01-01T08:21:45;4.30;;;1.43;;
17796;SDS011;55596;53.554;9.916;2023-01-01T08:24:12;9.13;;;1.40;;
17796;SDS011;55596;53.554;9.916;2023-01-01T08:26:39;2.50;;;1.27;;
17796;SDS011;55596;53.554;9.916;2023-01-01T08:29:06;5.07;;;1.30;;
17796;SDS011;55596;53.554;9.916;2023-01-01T08:31:33;4.53;;;1.10;;
17796;SDS011;55596;53.554;9.916;2023-01-01T08:34:01;4.73;;;1.20;;
17796;SDS011;55596;53.554;9.916;2023-01-01T08:36:28;3.97;;;1.17;;
17796;SDS011;55596;53.554;9.916;2023-01-01T08:38:55;2.90;;;1.23;;
17796;SDS011;55596;53.554;9.916;2023-01-01T08:41:21;6.03;;;1.30;;
17796;SDS011;55596;53.554;9.916;2023-01-01T08:43:48;3.00;;;1.13;;
17796;SDS011;55596;53.554;9.916;2023-01-01T08:46:15;4.20;;;1.40;;
17796;SDS011;55596;53.554;9.916;2023-01-01T08:48:42;2.77;;;0.87;;
17796;SDS011;55596;53.554;9.916;2023-01-01T08:51:10;5.07;;;1.10;;
17796;SDS011;55596;53.554;9.916;2023-01-01T08:53:37;3.00;;;1.07;;
17796;SDS011;55596;53.554;9.916;2023-01-01T08:56:04;5.97;;;1.13;;
17796;SDS011;55596;53.554;9.916;2023-01-01T08:58:34;8.53;;;2.10;;
17796;SDS011;55596;53.554;9.916;2023-01-01T09:01:02;8.50;;;1.73;;
17796;SDS011;55596;53.554;9.916;2023-01-01T09:03:29;5.40;;;1.23;;
17796;SDS011;55596;53.554;9.916;2023-01-01T09:05:56;6.37;;;1.37;;
17796;SDS011;55596;53.554;9.916;2023-01-01T09:08:24;3.23;;;1.10;;
17796;SDS011;55596;53.554;9.916;2023-01-01T09:10:52;3.03;;;1.33;;
17796;SDS011;55596;53.554;9.916;2023-01-01T09:13:22;5.17;;;1.40;;
17796;SDS011;55596;53.554;9.916;2023-01-01T09:15:49;10.67;;;1.60;;
17796;SDS011;55596;53.554;9.916;2023-01-01T09:18:16;6.27;;;1.47;;
17796;SDS011;55596;53.554;9.916;2023-01-01T09:20:43;5.33;;;1.43;;
17796;SDS011;55596;53.554;9.916;2023-01-01T09:23:10;6.93;;;1.10;;
17796;SDS011;55596;53.554;9.916;2023-01-01T09:25:39;7.33;;;1.60;;
17796;SDS011;55596;53.554;9.916;2023-01-01T09:28:06;4.43;;;1.70;;
17796;SDS011;55596;53.554;9.916;2023-01-01T09:30:36;7.53;;;1.03;;
17796;SDS011;55596;53.554;9.916;2023-01-01T09:33:03;7.00;;;1.63;;
17796;SDS011;55596;53.554;9.916;2023-01-01T09:35:30;3.93;;;1.17;;
17796;SDS011;55596;53.554;9.916;2023-01-01T09:37:57;5.17;;;1.40;;
17796;SDS011;55596;53.554;9.916;2023-01-01T09:40:26;3.90;;;1.37;;
17796;SDS011;55596;53.554;9.916;2023-01-01T09:43:02;5.10;;;1.43;;
17796;SDS011;55596;53.554;9.916;2023-01-01T09:45:39;4.67;;;1.10;;
17796;SDS011;55596;53.554;9.916;2023-01-01T09:48:13;5.03;;;0.90;;
17796;SDS011;55596;53.554;9.916;2023-01-01T09:50:42;4.30;;;1.50;;
17796;SDS011;55596;53.554;9.916;2023-01-01T09:53:11;5.37;;;1.10;;
17796;SDS011;55596;53.554;9.916;2023-01-01T09:55:43;3.27;;;0.97;;
17796;SDS011;55596;53.554;9.916;2023-01-01T09:58:15;5.40;;;1.77;;
17796;SDS011;55596;53.554;9.916;2023-01-01T10:00:47;4.50;;;1.23;;
17796;SDS011;55596;53.554;9.916;2023-01-01T10:03:25;4.30;;;1.30;;
17796;SDS011;55596;53.554;9.916;2023-01-01T10:06:03;3.97;;;1.30;;
17796;SDS011;55596;53.554;9.916;2023-01-01T10:08:42;9.33;;;1.30;;
17796;SDS011;55596;53.554;9.916;2023-01-01T10:11:23;4.40;;;1.40;;
17796;SDS011;55596;53.554;9.916;2023-01-01T10:13:58;5.57;;;1.37;;
17796;SDS011;55596;53.554;9.916;2023-01-01T10:16:29;2.83;;;1.20;;
17796;SDS011;55596;53.554;9.916;2023-01-01T10:19:00;9.33;;;1.60;;
17796;SDS011;55596;53.554;9.916;2023-01-01T10:21:39;6.10;;;1.60;;
17796;SDS011;55596;53.554;9.916;2023-01-01T10:24:12;5.40;;;1.60;;
17796;SDS011;55596;53.554;9.916;2023-01-01T10:26:51;5.77;;;1.43;;
17796;SDS011;55596;53.554;9.916;2023-01-01T10:29:22;3.63;;;1.30;;
17796;SDS011;55596;53.554;9.916;2023-01-01T10:31:53;5.43;;;1.40;;
17796;SDS011;55596;53.554;9.916;2023-01-01T10:34:23;6.73;;;1.33;;
17796;SDS011;55596;53.554;9.916;2023-01-01T10:36:52;6.47;;;1.37;;
17796;SDS011;55596;53.554;9.916;2023-01-01T10:39:20;3.73;;;1.20;;
17796;SDS011;55596;53.554;9.916;2023-01-01T10:41:48;4.03;;;1.20;;
17796;SDS011;55596;53.554;9.916;2023-01-01T10:44:16;5.27;;;1.53;;
17796;SDS011;55596;53.554;9.916;2023-01-01T10:46:47;3.60;;;0.97;;
17796;SDS011;55596;53.554;9.916;2023-01-01T10:49:19;4.37;;;1.30;;
17796;SDS011;55596;53.554;9.916;2023-01-01T10:51:47;3.90;;;1.03;;
17796;SDS011;55596;53.554;9.916;2023-01-01T10:54:30;4.80;;;1.33;;
17796;SDS011;55596;53.554;9.916;2023-01-01T10:56:59;4.57;;;1.00;;
17796;SDS011;55596;53.554;9.916;2023-01-01T10:59:38;5.63;;;1.20;;
17796;SDS011;55596;53.554;9.916;2023-01-01T11:02:13;4.70;;;1.00;;
17796;SDS011;55596;53.554;9.916;2023-01-01T11:04:42;3.93;;;1.03;;
17796;SDS011;55596;53.554;9.916;2023-01-01T11:07:11;5.57;;;1.17;;
17796;SDS011;55596;53.554;9.916;2023-01-01T11:09:46;2.97;;;0.90;;
17796;SDS011;55596;53.554;9.916;2023-01-01T11:12:16;5.13;;;1.20;;
17796;SDS011;55596;53.554;9.916;2023-01-01T11:14:47;3.77;;;1.00;;
17796;SDS011;55596;53.554;9.916;2023-01-01T11:17:20;3.97;;;1.23;;
17796;SDS011;55596;53.554;9.916;2023-01-01T11:19:49;4.97;;;0.90;;
17796;SDS011;55596;53.554;9.916;2023-01-01T11:25:15;4.23;;;1.10;;
17796;SDS011;55596;53.554;9.916;2023-01-01T11:27:47;4.57;;;1.10;;
17796;SDS011;55596;53.554;9.916;2023-01-01T11:30:19;5.87;;;0.97;;
17796;SDS011;55596;53.554;9.916;2023-01-01T11:32:50;5.23;;;1.33;;
17796;SDS011;55596;53.554;9.916;2023-01-01T11:35:21;3.67;;;1.13;;
17796;SDS011;55596;53.554;9.916;2023-01-01T11:37:50;3.80;;;1.00;;
17796;SDS011;55596;53.554;9.916;2023-01-01T11:40:19;5.33;;;1.07;;
17796;SDS011;55596;53.554;9.916;2023-01-01T11:42:49;5.43;;;1.10;;
17796;SDS011;55596;53.554;9.916;2023-01-01T11:45:19;5.47;;;1.00;;
17796;SDS011;55596;53.554;9.916;2023-01-01T11:47:51;3.70;;;1.00;;
17796;SDS011;55596;53.554;9.916;2023-01-01T11:50:26;5.03;;;1.10;;
17796;SDS011;55596;53.554;9.916;2023-01-01T11:52:55;3.37;;;1.10;;
17796;SDS011;55596;53.554;9.916;2023-01-01T11:55:31;3.73;;;1.20;;
17796;SDS011;55596;53.554;9.916;2023-01-01T11:58:28;4.60;;;1.10;;
17796;SDS011;55596;53.554;9.916;2023-01-01T12:01:02;6.80;;;1.53;;
17796;SDS011;55596;53.554;9.916;2023-01-01T12:03:42;5.20;;;1.50;;
17796;SDS011;55596;53.554;9.916;2023-01-01T12:06:14;2.97;;;0.90;;
17796;SDS011;55596;53.554;9.916;2023-01-01T12:08:47;3.80;;;1.00;;
17796;SDS011;55596;53.554;9.916;2023-01-01T12:11:22;8.17;;;1.40;;
17796;SDS011;55596;53.554;9.916;2023-01-01T12:13:53;3.97;;;1.30;;
17796;SDS011;55596;53.554;9.916;2023-01-01T12:16:26;3.47;;;1.03;;
17796;SDS011;55596;53.554;9.916;2023-01-01T12:19:09;5.73;;;1.30;;
17796;SDS011;55596;53.554;9.916;2023-01-01T12:21:40;6.10;;;0.80;;
17796;SDS011;55596;53.554;9.916;2023-01-01T12:24:11;8.07;;;1.43;;
17796;SDS011;55596;53.554;9.916;2023-01-01T12:26:43;4.70;;;1.40;;
17796;SDS011;55596;53.554;9.916;2023-01-01T12:29:24;5.57;;;1.40;;
17796;SDS011;55596;53.554;9.916;2023-01-01T12:32:03;4.63;;;1.17;;
17796;SDS011;55596;53.554;9.916;2023-01-01T12:34:37;2.57;;;0.90;;
17796;SDS011;55596;53.554;9.916;2023-01-01T12:37:13;4.47;;;0.97;;
17796;SDS011;55596;53.554;9.916;2023-01-01T12:42:57;4.80;;;1.37;;
17796;SDS011;55596;53.554;9.916;2023-01-01T12:45:36;3.47;;;0.90;;
17796;SDS011;55596;53.554;9.916;2023-01-01T12:48:19;5.37;;;1.10;;
17796;SDS011;55596;53.554;9.916;2023-01-01T12:51:02;6.77;;;1.00;;
17796;SDS011;55596;53.554;9.916;2023-01-01T12:53:33;4.20;;;1.13;;
17796;SDS011;55596;53.554;9.916;2023-01-01T12:56:12;6.17;;;1.13;;
17796;SDS011;55596;53.554;9.916;2023-01-01T12:58:42;5.50;;;1.07;;
17796;SDS011;55596;53.554;9.916;2023-01-01T13:01:17;5.83;;;1.30;;
17796;SDS011;55596;53.554;9.916;2023-01-01T13:03:48;5.23;;;1.00;;
17796;SDS011;55596;53.554;9.916;2023-01-01T13:06:21;5.47;;;1.60;;
17796;SDS011;55596;53.554;9.916;2023-01-01T13:08:53;5.80;;;1.30;;
17796;SDS011;55596;53.554;9.916;2023-01-01T13:11:24;5.83;;;1.33;;
17796;SDS011;55596;53.554;9.916;2023-01-01T13:13:53;3.80;;;1.20;;
17796;SDS011;55596;53.554;9.916;2023-01-01T13:19:03;10.93;;;1.67;;
17796;SDS011;55596;53.554;9.916;2023-01-01T13:21:32;6.67;;;1.83;;
17796;SDS011;55596;53.554;9.916;2023-01-01T13:24:02;7.83;;;1.30;;
17796;SDS011;55596;53.554;9.916;2023-01-01T13:26:39;7.33;;;1.47;;
17796;SDS011;55596;53.554;9.916;2023-01-01T13:32:16;4.87;;;1.23;;
17796;SDS011;55596;53.554;9.916;2023-01-01T13:37:44;6.87;;;1.60;;
17796;SDS011;55596;53.554;9.916;2023-01-01T13:40:27;4.97;;;1.67;;
17796;SDS011;55596;53.554;9.916;2023-01-01T13:46:00;7.03;;;1.80;;
17796;SDS011;55596;53.554;9.916;2023-01-01T13:48:34;7.93;;;1.67;;
17796;SDS011;55596;53.554;9.916;2023-01-01T13:54:37;5.57;;;1.30;;
17796;SDS011;55596;53.554;9.916;2023-01-01T13:57:34;7.73;;;1.70;;
17796;SDS011;55596;53.554;9.916;2023-01-01T14:00:16;7.43;;;1.30;;
17796;SDS011;55596;53.554;9.916;2023-01-01T14:02:46;7.43;;;1.63;;
17796;SDS011;55596;53.554;9.916;2023-01-01T14:05:23;8.60;;;1.63;;
17796;SDS011;55596;53.554;9.916;2023-01-01T14:07:55;8.83;;;1.73;;
17796;SDS011;55596;53.554;9.916;2023-01-01T14:10:26;9.63;;;1.83;;
17796;SDS011;55596;53.554;9.916;2023-01-01T14:12:56;8.83;;;1.77;;
17796;SDS011;55596;53.554;9.916;2023-01-01T14:15:41;6.03;;;1.53;;
17796;SDS011;55596;53.554;9.916;2023-01-01T14:18:16;8.60;;;1.70;;
17796;SDS011;55596;53.554;9.916;2023-01-01T14:20:45;7.80;;;1.47;;
17796;SDS011;55596;53.554;9.916;2023-01-01T14:23:15;8.27;;;1.73;;
17796;SDS011;55596;53.554;9.916;2023-01-01T14:25:48;8.00;;;1.57;;
17796;SDS011;55596;53.554;9.916;2023-01-01T14:28:16;7.57;;;1.60;;
17796;SDS011;55596;53.554;9.916;2023-01-01T14:30:47;7.87;;;2.07;;
17796;SDS011;55596;53.554;9.916;2023-01-01T14:33:21;9.23;;;1.73;;
17796;SDS011;55596;53.554;9.916;2023-01-01T14:35:50;12.30;;;1.90;;
17796;SDS011;55596;53.554;9.916;2023-01-01T14:38:22;10.63;;;1.80;;
17796;SDS011;55596;53.554;9.916;2023-01-01T14:40:59;6.37;;;1.80;;
17796;SDS011;55596;53.554;9.916;2023-01-01T14:43:39;7.60;;;1.60;;
17796;SDS011;55596;53.554;9.916;2023-01-01T14:46:07;8.87;;;2.00;;
17796;SDS011;55596;53.554;9.916;2023-01-01T14:48:41;5.63;;;1.50;;
17796;SDS011;55596;53.554;9.916;2023-01-01T14:51:10;6.53;;;1.40;;
17796;SDS011;55596;53.554;9.916;2023-01-01T14:53:39;8.67;;;2.20;;
17796;SDS011;55596;53.554;9.916;2023-01-01T14:56:09;9.40;;;2.03;;
17796;SDS011;55596;53.554;9.916;2023-01-01T14:58:38;6.23;;;1.57;;
17796;SDS011;55596;53.554;9.916;2023-01-01T15:01:12;7.80;;;1.70;;
17796;SDS011;55596;53.554;9.916;2023-01-01T15:03:40;11.40;;;1.90;;
17796;SDS011;55596;53.554;9.916;2023-01-01T15:06:19;13.70;;;2.23;;
17796;SDS011;55596;53.554;9.916;2023-01-01T15:08:48;9.10;;;1.83;;
17796;SDS011;55596;53.554;9.916;2023-01-01T15:11:17;8.83;;;1.90;;
17796;SDS011;55596;53.554;9.916;2023-01-01T15:13:51;9.93;;;1.87;;
17796;SDS011;55596;53.554;9.916;2023-01-01T15:16:22;10.27;;;2.00;;
17796;SDS011;55596;53.554;9.916;2023-01-01T15:18:49;11.70;;;2.10;;
17796;SDS011;55596;53.554;9.916;2023-01-01T15:21:22;7.10;;;1.80;;
17796;SDS011;55596;53.554;9.916;2023-01-01T15:24:02;7.60;;;1.77;;